createdAt,value
2023-05-14T00:01:10.027Z,14.46
2023-05-14T00:06:11.597Z,14.39
2023-05-14T00:11:13.356Z,14.46
2023-05-14T00:16:14.977Z,14.56
2023-05-14T00:21:17.157Z,14.53
2023-05-14T00:26:18.770Z,14.48
2023-05-14T00:31:20.699Z,14.49
2023-05-14T00:36:22.282Z,14.51
2023-05-14T00:41:23.853Z,14.38
2023-05-14T00:46:26.206Z,14.32
2023-05-14T00:51:27.992Z,14.39
2023-05-14T00:56:29.819Z,14.49
2023-05-14T01:01:31.538Z,14.49
2023-05-14T01:06:48.199Z,14.52
2023-05-14T01:12:00.268Z,14.49
2023-05-14T01:17:04.460Z,14.46
2023-05-14T01:22:06.349Z,14.45
2023-05-14T01:27:08.130Z,14.36
2023-05-14T01:32:10.936Z,14.44
2023-05-14T01:37:12.948Z,14.36
2023-05-14T01:42:15.143Z,14.35
2023-05-14T01:47:16.782Z,14.31
2023-05-14T01:52:21.013Z,14.43
2023-05-14T01:57:22.720Z,14.30
2023-05-14T02:02:24.421Z,14.37
2023-05-14T02:07:26.028Z,14.25
2023-05-14T02:12:27.639Z,14.09
2023-05-14T02:17:29.298Z,14.02
2023-05-14T02:22:30.899Z,13.95
2023-05-14T02:27:32.460Z,13.89
2023-05-14T02:32:34.156Z,13.89
2023-05-14T02:37:35.885Z,13.77
2023-05-14T02:42:37.497Z,13.79
2023-05-14T02:47:39.075Z,13.59
2023-05-14T02:52:40.963Z,13.61
2023-05-14T02:57:42.584Z,13.40
2023-05-14T03:02:44.740Z,13.44
2023-05-14T03:07:46.672Z,13.45
2023-05-14T03:12:48.251Z,13.40
2023-05-14T03:17:49.913Z,13.36
2023-05-14T03:22:52.014Z,13.29
2023-05-14T03:27:53.628Z,13.28
2023-05-14T03:32:55.221Z,13.23
2023-05-14T03:37:59.146Z,13.18
2023-05-14T03:43:00.808Z,13.36
2023-05-14T03:48:02.960Z,13.26
2023-05-14T03:53:07.536Z,13.22
2023-05-14T03:58:14.229Z,13.25
2023-05-14T04:03:16.184Z,13.22
2023-05-14T04:08:17.884Z,13.29
2023-05-14T04:13:19.475Z,13.42
2023-05-14T04:18:21.105Z,13.42
2023-05-14T04:23:23.791Z,13.50
2023-05-14T04:28:25.682Z,13.49
2023-05-14T04:33:27.280Z,13.82
2023-05-14T04:38:28.863Z,13.86
2023-05-14T04:43:30.510Z,13.74
2023-05-14T04:48:32.165Z,13.80
2023-05-14T04:53:33.727Z,14.00
2023-05-14T04:58:35.439Z,14.15
2023-05-14T05:03:37.125Z,14.25
2023-05-14T05:08:38.736Z,14.16
2023-05-14T05:13:41.388Z,14.24
2023-05-14T05:18:44.630Z,14.40
2023-05-14T05:23:46.306Z,14.62
2023-05-14T05:28:48.087Z,14.72
2023-05-14T05:33:49.698Z,14.82
2023-05-14T05:38:51.381Z,14.98
2023-05-14T05:43:52.934Z,15.02
2023-05-14T05:48:54.554Z,15.23
2023-05-14T05:53:56.152Z,15.33
2023-05-14T05:58:57.723Z,15.40
2023-05-14T06:03:59.332Z,15.56
2023-05-14T06:09:01.999Z,15.45
2023-05-14T06:14:03.648Z,15.69
2023-05-14T06:19:06.258Z,16.10
2023-05-14T06:24:08.099Z,16.23
2023-05-14T06:29:09.723Z,16.41
2023-05-14T06:34:11.326Z,16.58
2023-05-14T06:39:12.997Z,16.50
2023-05-14T06:44:14.622Z,16.75
2023-05-14T06:49:16.265Z,16.93
2023-05-14T06:54:17.838Z,17.05
2023-05-14T06:59:19.457Z,17.02
2023-05-14T07:04:21.070Z,17.11
2023-05-14T07:09:22.701Z,17.40
2023-05-14T07:14:24.277Z,17.62
2023-05-14T07:19:28.588Z,17.47
2023-05-14T07:24:30.276Z,17.68
2023-05-14T07:29:34.869Z,17.87
2023-05-14T07:34:36.484Z,18.10
2023-05-14T07:39:38.382Z,18.11
2023-05-14T07:44:40.443Z,18.28
2023-05-14T07:49:42.075Z,18.40
2023-05-14T07:54:43.603Z,18.32
2023-05-14T07:59:45.312Z,18.14
2023-05-14T08:04:46.930Z,18.29
2023-05-14T08:09:48.488Z,18.33
2023-05-14T08:14:50.088Z,18.50
2023-05-14T08:19:52.966Z,18.51
2023-05-14T08:24:54.880Z,18.91
2023-05-14T08:29:56.604Z,18.82
2023-05-14T08:34:58.156Z,18.90
2023-05-14T08:39:59.860Z,18.76
2023-05-14T08:45:02.679Z,18.65
2023-05-14T08:50:06.320Z,19.06
2023-05-14T08:55:09.115Z,18.88
2023-05-14T09:00:11.890Z,18.79
2023-05-14T09:05:14.875Z,18.72
2023-05-14T09:10:17.374Z,18.49
2023-05-14T09:15:19.053Z,18.63
2023-05-14T09:20:21.131Z,18.81
2023-05-14T09:25:27.046Z,18.89
2023-05-14T09:30:28.682Z,18.99
2023-05-14T09:35:30.480Z,19.03
2023-05-14T09:40:32.167Z,19.08
2023-05-14T09:45:35.004Z,18.88
2023-05-14T09:50:43.730Z,18.62
2023-05-14T09:55:45.705Z,18.95
2023-05-14T10:00:47.957Z,18.72
2023-05-14T10:05:50.990Z,19.00
2023-05-14T10:10:54.416Z,19.14
2023-05-14T10:16:20.319Z,19.35
2023-05-14T10:21:22.549Z,19.30
2023-05-14T10:26:24.761Z,19.70
2023-05-14T10:31:45.118Z,19.76
2023-05-14T10:36:46.804Z,19.87
2023-05-14T10:41:48.432Z,19.72
2023-05-14T10:46:50.178Z,19.96
2023-05-14T10:51:53.185Z,20.03
2023-05-14T10:56:59.019Z,19.88
2023-05-14T11:02:00.658Z,19.60
2023-05-14T11:07:02.383Z,19.37
2023-05-14T11:12:04.037Z,19.50
2023-05-14T11:17:05.730Z,19.57
2023-05-14T11:22:08.068Z,19.42
2023-05-14T11:27:10.826Z,19.29
2023-05-14T11:32:13.212Z,19.32
2023-05-14T11:37:16.066Z,19.33
2023-05-14T11:42:19.507Z,19.41
2023-05-14T11:47:22.169Z,19.59
2023-05-14T11:52:23.802Z,19.98
2023-05-14T11:57:26.028Z,19.79
2023-05-14T12:02:30.535Z,19.64
2023-05-14T12:07:32.617Z,19.99
2023-05-14T12:12:37.617Z,20.23
2023-05-14T12:17:39.796Z,20.27
2023-05-14T12:22:43.053Z,20.41
2023-05-14T12:27:44.978Z,20.41
2023-05-14T12:32:46.760Z,20.46
2023-05-14T12:37:48.390Z,20.50
2023-05-14T12:42:50.095Z,20.40
2023-05-14T12:47:51.847Z,20.44
2023-05-14T12:52:53.444Z,20.54
2023-05-14T12:57:55.011Z,20.54
2023-05-14T13:02:56.645Z,20.35
2023-05-14T13:07:59.313Z,20.40
2023-05-14T13:13:02.429Z,20.71
2023-05-14T13:18:04.790Z,20.35
2023-05-14T13:23:06.465Z,20.41
2023-05-14T13:28:08.633Z,20.13
2023-05-14T13:33:10.380Z,20.37
2023-05-14T13:38:11.989Z,20.12
2023-05-14T13:43:14.885Z,20.00
2023-05-14T13:48:16.567Z,20.09
2023-05-14T13:53:19.755Z,20.07
2023-05-14T13:58:21.363Z,20.16
2023-05-14T14:03:23.017Z,20.06
2023-05-14T14:08:24.811Z,20.07
2023-05-14T14:13:26.461Z,20.19
2023-05-14T14:18:28.143Z,20.16
2023-05-14T14:23:29.753Z,20.38
2023-05-14T14:28:31.495Z,19.98
2023-05-14T14:33:33.130Z,19.89
2023-05-14T14:38:34.780Z,19.80
2023-05-14T14:43:41.103Z,19.58
2023-05-14T14:48:43.903Z,19.63
2023-05-14T14:53:45.515Z,19.44
2023-05-14T14:58:47.214Z,19.49
2023-05-14T15:03:49.169Z,19.41
2023-05-14T15:08:50.769Z,19.37
2023-05-14T15:13:52.348Z,19.48
2023-05-14T15:18:54.177Z,19.44
2023-05-14T15:23:56.122Z,19.34
2023-05-14T15:28:58.978Z,19.33
2023-05-14T15:34:00.812Z,19.25
2023-05-14T15:39:02.395Z,19.21
2023-05-14T15:44:05.330Z,19.21
2023-05-14T15:49:06.956Z,19.26
2023-05-14T15:54:08.596Z,19.18
2023-05-14T15:59:10.261Z,19.17
2023-05-14T16:04:12.006Z,19.17
2023-05-14T16:09:13.620Z,19.15
2023-05-14T16:14:15.287Z,19.19
2023-05-14T16:19:18.033Z,19.12
2023-05-14T16:24:19.843Z,19.02
2023-05-14T16:29:21.609Z,18.81
2023-05-14T16:34:23.177Z,18.74
2023-05-14T16:39:24.777Z,18.74
2023-05-14T16:44:26.331Z,18.47
2023-05-14T16:49:27.979Z,18.54
2023-05-14T16:54:29.908Z,18.54
2023-05-14T16:59:31.781Z,18.40
2023-05-14T17:04:38.666Z,18.44
2023-05-14T17:09:40.777Z,18.33
2023-05-14T17:14:42.367Z,18.36
2023-05-14T17:19:44.121Z,18.32
2023-05-14T17:24:45.823Z,18.28
2023-05-14T17:29:49.265Z,18.20
2023-05-14T17:34:50.928Z,18.11
2023-05-14T17:39:52.900Z,18.07
2023-05-14T17:44:54.509Z,18.02
2023-05-14T17:49:56.148Z,17.92
2023-05-14T17:54:57.696Z,17.79
2023-05-14T17:59:59.262Z,17.75
2023-05-14T18:05:02.683Z,17.56
2023-05-14T18:10:04.703Z,17.62
2023-05-14T18:15:06.897Z,17.51
2023-05-14T18:20:09.074Z,17.40
2023-05-14T18:25:10.763Z,17.35
2023-05-14T18:30:14.438Z,17.21
2023-05-14T18:35:16.163Z,17.10
2023-05-14T18:40:18.858Z,16.98
2023-05-14T18:45:21.540Z,16.94
2023-05-14T18:50:23.169Z,16.89
2023-05-14T18:55:25.069Z,16.78
2023-05-14T19:00:26.834Z,16.68
2023-05-14T19:05:28.418Z,16.54
2023-05-14T19:10:29.968Z,16.54
2023-05-14T19:15:32.337Z,16.48
2023-05-14T19:20:33.958Z,16.43
2023-05-14T19:25:35.614Z,16.31
2023-05-14T19:30:37.201Z,16.27
2023-05-14T19:35:38.830Z,16.25
2023-05-14T19:40:42.920Z,16.18
2023-05-14T19:45:45.839Z,16.21
2023-05-14T19:50:48.140Z,16.07
2023-05-14T19:55:49.940Z,16.06
2023-05-14T20:00:53.419Z,16.00
2023-05-14T20:05:55.810Z,15.97
2023-05-14T20:10:57.604Z,15.88
2023-05-14T20:16:00.058Z,15.83
2023-05-14T20:21:01.709Z,15.79
2023-05-14T20:26:03.968Z,15.88
2023-05-14T20:31:05.762Z,15.69
2023-05-14T20:36:07.525Z,15.58
2023-05-14T20:41:09.175Z,15.52
2023-05-14T20:46:10.816Z,15.50
2023-05-14T20:51:12.690Z,15.52
2023-05-14T20:56:14.313Z,15.44
2023-05-14T21:01:15.850Z,15.56
2023-05-14T21:06:17.423Z,15.41
2023-05-14T21:11:20.385Z,15.39
2023-05-14T21:16:22.134Z,15.40
2023-05-14T21:21:23.764Z,15.42
2023-05-14T21:26:25.895Z,15.48
2023-05-14T21:31:27.495Z,15.36
2023-05-14T21:36:29.118Z,15.45
2023-05-14T21:41:32.187Z,15.47
2023-05-14T21:46:33.817Z,15.32
2023-05-14T21:51:35.920Z,15.31
2023-05-14T21:56:37.543Z,15.09
2023-05-14T22:01:55.536Z,15.14
2023-05-14T22:07:00.676Z,15.23
2023-05-14T22:12:02.241Z,15.13
2023-05-14T22:17:04.635Z,15.22
2023-05-14T22:22:06.305Z,15.23
2023-05-14T22:27:07.931Z,15.23
2023-05-14T22:32:10.254Z,15.17
2023-05-14T22:37:11.821Z,15.20
2023-05-14T22:42:13.405Z,15.21
2023-05-14T22:47:15.039Z,15.22
2023-05-14T22:52:18.731Z,15.17
2023-05-14T22:57:20.461Z,15.29
2023-05-14T23:02:22.123Z,15.20
2023-05-14T23:07:23.702Z,15.17
2023-05-14T23:12:25.290Z,14.94
2023-05-14T23:17:27.074Z,14.84
2023-05-14T23:22:28.778Z,14.87
2023-05-14T23:27:30.426Z,14.79
2023-05-14T23:32:32.037Z,14.88
2023-05-14T23:37:33.756Z,14.87
2023-05-14T23:42:35.302Z,14.88
2023-05-14T23:47:36.988Z,14.70
2023-05-14T23:52:38.564Z,14.59
2023-05-14T23:57:40.907Z,14.63
